createdAt,value
2017-12-26T00:01:48.084Z,96126.39
2017-12-26T00:04:17.186Z,96131.75
2017-12-26T00:06:43.025Z,96123.58
2017-12-26T00:09:11.195Z,96119.03
2017-12-26T00:11:37.006Z,96126.84
2017-12-26T00:14:07.142Z,96117.52
2017-12-26T00:16:32.960Z,96111.67
2017-12-26T00:19:00.627Z,96115.64
2017-12-26T00:21:26.490Z,96111.38
2017-12-26T00:23:56.097Z,96101.24
2017-12-26T00:26:21.978Z,96094.52
2017-12-26T00:28:50.471Z,96092.38
2017-12-26T00:31:16.324Z,96095.77
2017-12-26T00:33:42.193Z,96081.55
2017-12-26T00:36:08.075Z,96080.81
2017-12-26T00:38:33.950Z,96085.56
2017-12-26T00:41:01.888Z,96088.52
2017-12-26T00:43:27.728Z,96076.60
2017-12-26T00:45:57.910Z,96065.58
2017-12-26T00:48:23.735Z,96050.94
2017-12-26T00:50:51.277Z,96059.23
2017-12-26T00:53:17.083Z,96051.47
2017-12-26T00:55:45.855Z,96051.63
2017-12-26T00:58:11.726Z,96041.84
2017-12-26T01:00:40.668Z,96040.84
2017-12-26T01:03:06.534Z,96041.62
2017-12-26T01:05:36.561Z,96040.13
2017-12-26T01:08:02.407Z,96031.41
2017-12-26T01:10:28.280Z,96037.54
2017-12-26T01:12:54.119Z,96034.88
2017-12-26T01:15:19.969Z,96033.97
2017-12-26T01:17:47.297Z,96034.08
2017-12-26T01:20:13.128Z,96028.75
2017-12-26T01:22:42.816Z,96025.00
2017-12-26T01:25:08.659Z,96027.80
2017-12-26T01:27:36.213Z,96026.50
2017-12-26T01:30:02.084Z,96021.64
2017-12-26T01:34:58.874Z,96011.81
2017-12-26T01:37:26.641Z,96017.05
2017-12-26T01:39:52.462Z,96021.28
2017-12-26T01:42:21.768Z,96017.11
2017-12-26T01:44:47.634Z,96014.95
2017-12-26T01:47:13.499Z,96014.95
2017-12-26T01:49:39.318Z,96013.63
2017-12-26T01:52:05.178Z,96011.02
2017-12-26T01:54:32.543Z,96012.33
2017-12-26T01:56:58.370Z,96010.53
2017-12-26T01:59:27.483Z,96007.13
2017-12-26T02:01:53.330Z,96005.55
2017-12-26T02:04:22.722Z,95997.39
2017-12-26T02:06:48.548Z,95998.95
2017-12-26T02:09:18.072Z,95992.20
2017-12-26T02:11:44.757Z,95993.75
2017-12-26T02:14:11.332Z,95993.38
2017-12-26T02:16:37.234Z,95983.38
2017-12-26T02:19:06.464Z,95976.20
2017-12-26T02:21:32.313Z,95974.86
2017-12-26T02:23:58.167Z,95973.67
2017-12-26T02:26:24.039Z,95971.41
2017-12-26T02:28:49.992Z,95964.62
2017-12-26T02:31:19.265Z,95960.09
2017-12-26T02:33:45.115Z,95957.47
2017-12-26T02:36:12.955Z,95957.78
2017-12-26T02:38:38.799Z,95955.48
2017-12-26T02:41:07.835Z,95950.74
2017-12-26T02:43:33.663Z,95944.42
2017-12-26T02:46:02.663Z,95938.13
2017-12-26T02:48:28.490Z,95931.94
2017-12-26T02:50:57.538Z,95928.41
2017-12-26T02:53:23.458Z,95927.75
2017-12-26T02:55:52.366Z,95922.60
2017-12-26T02:58:18.248Z,95924.55
2017-12-26T03:00:44.278Z,95918.97
2017-12-26T03:03:10.113Z,95913.34
2017-12-26T03:05:35.939Z,95916.98
2017-12-26T03:08:03.129Z,95915.09
2017-12-26T03:10:29.007Z,95908.57
2017-12-26T03:12:58.539Z,95906.86
2017-12-26T03:15:24.378Z,95908.13
2017-12-26T03:17:53.427Z,95910.50
2017-12-26T03:20:19.309Z,95907.67
2017-12-26T03:22:48.773Z,95901.84
2017-12-26T03:25:14.598Z,95896.50
2017-12-26T03:27:42.090Z,95891.66
2017-12-26T03:30:07.901Z,95883.33
2017-12-26T03:32:38.278Z,95890.95
2017-12-26T03:35:04.106Z,95890.20
2017-12-26T03:37:29.961Z,95891.75
2017-12-26T03:39:55.853Z,95888.00
2017-12-26T03:42:21.672Z,95878.30
2017-12-26T03:44:49.291Z,95875.78
2017-12-26T03:47:15.140Z,95872.39
2017-12-26T03:49:43.365Z,95866.34
2017-12-26T03:52:09.205Z,95860.41
2017-12-26T03:54:37.728Z,95858.41
2017-12-26T03:57:03.617Z,95847.51
2017-12-26T03:59:32.550Z,95840.81
2017-12-26T04:01:58.393Z,95830.11
2017-12-26T04:04:26.854Z,95829.35
2017-12-26T04:06:52.717Z,95825.64
2017-12-26T04:11:49.681Z,95822.03
2017-12-26T04:14:15.506Z,95818.84
2017-12-26T04:16:41.348Z,95806.30
2017-12-26T04:19:07.188Z,95802.71
2017-12-26T04:21:34.037Z,95797.86
2017-12-26T04:23:59.891Z,95795.04
2017-12-26T04:26:29.222Z,95796.41
2017-12-26T04:28:55.045Z,95789.62
2017-12-26T04:31:24.231Z,95787.80
2017-12-26T04:33:50.057Z,95785.91
2017-12-26T04:36:17.765Z,95780.29
2017-12-26T04:38:43.638Z,95780.13
2017-12-26T04:41:13.288Z,95780.53
2017-12-26T04:43:39.169Z,95787.66
2017-12-26T04:46:08.770Z,95786.13
2017-12-26T04:48:34.650Z,95780.30
2017-12-26T04:51:00.462Z,95775.81
2017-12-26T04:53:26.314Z,95779.02
2017-12-26T04:55:52.158Z,95772.77
2017-12-26T04:58:19.537Z,95771.47
2017-12-26T05:00:45.430Z,95770.16
2017-12-26T05:03:14.635Z,95766.03
2017-12-26T05:05:40.559Z,95772.14
2017-12-26T05:08:08.464Z,95765.94
2017-12-26T05:10:34.303Z,95768.39
2017-12-26T05:13:03.799Z,95763.48
2017-12-26T05:15:29.671Z,95759.37
2017-12-26T05:17:58.925Z,95759.79
2017-12-26T05:20:24.733Z,95758.64
2017-12-26T05:22:54.376Z,95755.28
2017-12-26T05:25:20.259Z,95749.81
2017-12-26T05:27:46.146Z,95757.13
2017-12-26T05:30:11.995Z,95755.87
2017-12-26T05:32:37.818Z,95751.04
2017-12-26T05:35:05.369Z,95749.63
2017-12-26T05:37:31.274Z,95744.49
2017-12-26T05:39:58.955Z,95746.16
2017-12-26T05:42:24.830Z,95742.95
2017-12-26T05:44:50.675Z,95750.56
2017-12-26T05:47:17.840Z,95739.30
2017-12-26T05:49:43.697Z,95733.09
2017-12-26T05:52:11.175Z,95729.59
2017-12-26T05:54:37.165Z,95731.67
2017-12-26T05:57:06.358Z,95741.30
2017-12-26T05:59:32.231Z,95727.39
2017-12-26T06:02:01.505Z,95725.30
2017-12-26T06:04:27.378Z,95715.75
2017-12-26T06:06:54.957Z,95716.73
2017-12-26T06:09:20.804Z,95711.14
2017-12-26T06:11:49.467Z,95708.00
2017-12-26T06:14:15.307Z,95708.87
2017-12-26T06:19:11.939Z,95708.89
2017-12-26T06:21:40.896Z,95660.69
2017-12-26T06:24:06.737Z,95698.44
2017-12-26T06:26:36.165Z,95692.94
2017-12-26T06:29:01.988Z,95694.46
2017-12-26T06:31:28.982Z,95690.91
2017-12-26T06:33:54.860Z,95686.36
2017-12-26T06:36:24.173Z,95681.69
2017-12-26T06:38:50.035Z,95679.00
2017-12-26T06:41:15.874Z,95682.93
2017-12-26T06:43:41.766Z,95674.83
2017-12-26T06:46:07.612Z,95676.05
2017-12-26T06:48:35.533Z,95682.81
2017-12-26T06:51:01.430Z,95678.34
2017-12-26T06:53:30.867Z,95679.13
2017-12-26T06:55:56.694Z,95669.71
2017-12-26T06:58:24.330Z,95677.97
2017-12-26T07:00:50.185Z,95668.66
2017-12-26T07:05:46.973Z,95675.16
2017-12-26T07:08:15.860Z,95669.02
2017-12-26T07:10:41.711Z,95660.57
2017-12-26T07:13:09.092Z,95667.86
2017-12-26T07:15:34.970Z,95666.19
2017-12-26T07:18:00.796Z,95663.13
2017-12-26T07:23:29.529Z,95658.16
2017-12-26T07:25:55.366Z,95656.95
2017-12-26T07:28:21.185Z,95656.34
2017-12-26T07:30:47.006Z,95643.49
2017-12-26T07:33:12.851Z,95641.31
2017-12-26T07:35:38.685Z,95638.23
2017-12-26T07:38:04.540Z,95634.42
2017-12-26T07:40:30.343Z,95629.31
2017-12-26T07:42:56.171Z,95632.27
2017-12-26T07:45:22.021Z,95624.17
2017-12-26T07:47:47.834Z,95611.78
2017-12-26T07:50:13.787Z,95615.16
2017-12-26T07:52:39.659Z,95610.05
2017-12-26T07:55:05.526Z,95601.74
2017-12-26T07:57:31.361Z,95605.31
2017-12-26T07:59:57.226Z,95610.05
2017-12-26T08:02:23.013Z,95599.84
2017-12-26T08:04:48.832Z,95596.78
2017-12-26T08:07:14.702Z,95591.99
2017-12-26T08:09:40.551Z,95584.22
2017-12-26T08:12:06.415Z,95584.23
2017-12-26T08:14:32.256Z,95582.59
2017-12-26T08:16:58.123Z,95572.66
2017-12-26T08:19:23.906Z,95575.47
2017-12-26T08:21:49.736Z,95566.55
2017-12-26T08:24:15.571Z,95556.29
2017-12-26T08:26:41.557Z,95555.45
2017-12-26T08:29:07.374Z,95552.22
2017-12-26T08:31:33.188Z,95550.73
2017-12-26T08:33:59.001Z,95543.22
2017-12-26T08:36:24.820Z,95540.28
2017-12-26T08:38:51.446Z,95535.66
2017-12-26T08:41:17.313Z,95528.59
2017-12-26T08:43:45.502Z,95534.63
2017-12-26T08:46:11.341Z,95524.11
2017-12-26T08:51:08.069Z,95539.32
2017-12-26T08:53:35.158Z,95519.61
2017-12-26T08:56:01.016Z,95513.44
2017-12-26T08:58:29.700Z,95524.23
2017-12-26T09:00:55.566Z,95517.93
2017-12-26T09:03:25.027Z,95518.66
2017-12-26T09:05:50.862Z,95512.30
2017-12-26T09:08:16.719Z,95504.28
2017-12-26T09:10:42.579Z,95507.33
2017-12-26T09:13:08.407Z,95515.19
2017-12-26T09:15:37.802Z,95504.77
2017-12-26T09:18:03.655Z,95512.80
2017-12-26T09:20:33.047Z,95498.91
2017-12-26T09:22:58.909Z,95506.95
2017-12-26T09:25:26.135Z,95505.70
2017-12-26T09:27:51.998Z,95511.59
2017-12-26T09:30:20.984Z,95503.86
2017-12-26T09:32:46.829Z,95499.42
2017-12-26T09:35:16.262Z,95512.06
2017-12-26T09:37:42.123Z,95496.95
2017-12-26T09:40:11.391Z,95519.67
2017-12-26T09:42:37.232Z,95483.58
2017-12-26T09:45:03.084Z,95493.88
2017-12-26T09:47:28.931Z,95512.84
2017-12-26T09:49:54.781Z,95487.50
2017-12-26T09:52:22.377Z,95521.00
2017-12-26T09:54:48.216Z,95484.95
2017-12-26T09:57:17.415Z,95501.82
2017-12-26T09:59:43.278Z,95531.78
2017-12-26T10:02:11.178Z,95510.64
2017-12-26T10:04:37.034Z,95512.16
2017-12-26T10:07:06.822Z,95520.92
2017-12-26T10:09:32.649Z,95530.44
2017-12-26T10:12:01.681Z,95518.87
2017-12-26T10:14:27.526Z,95530.09
2017-12-26T10:16:55.206Z,95513.99
2017-12-26T10:19:21.074Z,95519.37
2017-12-26T10:21:46.960Z,95506.73
2017-12-26T10:24:12.806Z,95508.23
2017-12-26T10:26:38.647Z,95519.80
2017-12-26T10:29:08.294Z,95527.95
2017-12-26T10:31:34.133Z,95522.36
2017-12-26T10:34:03.131Z,95531.31
2017-12-26T10:36:29.031Z,95496.80
2017-12-26T10:38:56.485Z,95535.92
2017-12-26T10:41:22.332Z,95532.02
2017-12-26T10:43:51.129Z,95506.25
2017-12-26T10:46:16.946Z,95518.47
2017-12-26T10:48:45.871Z,95523.69
2017-12-26T10:51:11.718Z,95531.54
2017-12-26T10:53:40.249Z,95526.52
2017-12-26T10:56:06.132Z,95535.00
2017-12-26T10:58:31.954Z,95535.99
2017-12-26T11:00:57.822Z,95535.59
2017-12-26T11:03:23.665Z,95538.42
2017-12-26T11:05:53.509Z,95539.66
2017-12-26T11:08:19.350Z,95541.48
2017-12-26T11:10:47.199Z,95548.41
2017-12-26T11:13:13.051Z,95542.05
2017-12-26T11:15:42.289Z,95541.56
2017-12-26T11:18:08.117Z,95557.53
2017-12-26T11:20:37.917Z,95575.47
2017-12-26T11:23:03.769Z,95572.66
2017-12-26T11:25:33.069Z,95573.90
2017-12-26T11:27:58.977Z,95574.66
2017-12-26T11:30:26.112Z,95598.94
2017-12-26T11:32:51.918Z,95607.38
2017-12-26T11:35:17.759Z,95602.72
2017-12-26T11:37:43.647Z,95632.80
2017-12-26T11:40:09.470Z,95615.12
2017-12-26T11:42:38.969Z,95635.33
2017-12-26T11:45:04.785Z,95639.03
2017-12-26T11:47:32.342Z,95644.09
2017-12-26T11:49:58.209Z,95637.06
2017-12-26T11:52:26.837Z,95650.55
2017-12-26T11:54:52.687Z,95665.59
2017-12-26T11:59:49.336Z,95689.85
2017-12-26T12:02:18.297Z,95695.27
2017-12-26T12:04:44.179Z,95707.84
2017-12-26T12:07:11.581Z,95718.42
2017-12-26T12:09:37.443Z,95742.19
2017-12-26T12:12:03.305Z,95752.56
2017-12-26T12:14:29.182Z,95765.98
2017-12-26T12:16:55.026Z,95751.97
2017-12-26T12:19:22.718Z,95757.87
2017-12-26T12:21:48.597Z,95780.28
2017-12-26T12:24:17.351Z,95778.12
2017-12-26T12:26:43.196Z,95784.20
2017-12-26T12:31:39.933Z,95785.30
2017-12-26T12:34:07.022Z,95773.46
2017-12-26T12:36:32.860Z,95761.67
2017-12-26T12:39:02.305Z,95747.78
2017-12-26T12:41:28.170Z,95744.95
2017-12-26T12:43:57.564Z,95744.95
2017-12-26T12:46:23.473Z,95736.05
2017-12-26T12:48:49.308Z,95743.08
2017-12-26T12:51:15.158Z,95744.94
2017-12-26T12:53:40.995Z,95739.27
2017-12-26T12:56:08.797Z,95724.78
2017-12-26T12:58:34.663Z,95737.19
2017-12-26T13:01:04.488Z,95738.77
2017-12-26T13:03:30.343Z,95742.28
2017-12-26T13:05:58.151Z,95746.13
2017-12-26T13:08:24.007Z,95746.61
2017-12-26T13:10:53.586Z,95751.45
2017-12-26T13:13:19.420Z,95753.47
2017-12-26T13:15:47.262Z,95744.86
2017-12-26T13:18:13.085Z,95755.71
2017-12-26T13:20:42.718Z,95753.59
2017-12-26T13:23:08.510Z,95752.86
2017-12-26T13:25:34.370Z,95756.83
2017-12-26T13:28:00.248Z,95755.32
2017-12-26T13:30:26.127Z,95753.38
2017-12-26T13:32:53.558Z,95741.58
2017-12-26T13:35:19.463Z,95732.44
2017-12-26T13:37:47.815Z,95731.50
2017-12-26T13:40:13.651Z,95733.13
2017-12-26T13:45:10.388Z,95739.31
2017-12-26T13:47:39.408Z,95745.23
2017-12-26T13:50:05.217Z,95742.75
2017-12-26T13:52:33.004Z,95743.92
2017-12-26T13:54:58.887Z,95742.08
2017-12-26T13:57:28.616Z,95746.84
2017-12-26T13:59:54.474Z,95749.28
2017-12-26T14:02:20.282Z,95752.92
2017-12-26T14:04:46.141Z,95734.49
2017-12-26T14:07:11.967Z,95727.75
2017-12-26T14:09:39.623Z,95713.92
2017-12-26T14:12:05.464Z,95721.97
2017-12-26T14:14:35.098Z,95713.68
2017-12-26T14:17:00.961Z,95709.87
2017-12-26T14:19:29.826Z,95702.01
2017-12-26T14:21:55.691Z,95690.59
2017-12-26T14:24:24.735Z,95692.48
2017-12-26T14:26:50.602Z,95693.52
2017-12-26T14:29:19.580Z,95680.23
2017-12-26T14:31:45.352Z,95685.23
2017-12-26T14:34:12.850Z,95687.17
2017-12-26T14:36:38.698Z,95688.27
2017-12-26T14:39:04.583Z,95684.61
2017-12-26T14:41:30.441Z,95699.03
2017-12-26T14:43:56.258Z,95694.63
2017-12-26T14:46:25.927Z,95694.52
2017-12-26T14:48:51.853Z,95694.91
2017-12-26T14:51:19.088Z,95693.63
2017-12-26T14:53:44.979Z,95690.55
2017-12-26T14:56:14.828Z,95687.30
2017-12-26T14:58:40.673Z,95684.31
2017-12-26T15:01:08.783Z,95685.80
2017-12-26T15:03:34.650Z,95675.93
2017-12-26T15:06:03.806Z,95665.39
2017-12-26T15:08:29.649Z,95656.68
2017-12-26T15:10:58.578Z,95662.66
2017-12-26T15:13:24.450Z,95664.52
2017-12-26T15:15:50.308Z,95667.16
2017-12-26T15:18:16.180Z,95673.95
2017-12-26T15:20:42.039Z,95675.99
2017-12-26T15:23:10.963Z,95676.75
2017-12-26T15:25:36.795Z,95688.70
2017-12-26T15:28:05.859Z,95682.96
2017-12-26T15:30:31.733Z,95684.97
2017-12-26T15:33:00.705Z,95682.15
2017-12-26T15:35:26.572Z,95680.28
2017-12-26T15:37:53.771Z,95680.21
2017-12-26T15:40:19.584Z,95676.48
2017-12-26T15:42:48.653Z,95680.65
2017-12-26T15:45:14.464Z,95674.92
2017-12-26T15:47:44.315Z,95674.47
2017-12-26T15:50:10.156Z,95672.92
2017-12-26T15:52:36.048Z,95675.00
2017-12-26T15:55:01.912Z,95675.34
2017-12-26T15:57:27.794Z,95677.93
2017-12-26T15:59:55.041Z,95674.89
2017-12-26T16:02:20.857Z,95678.63
2017-12-26T16:04:49.881Z,95666.50
2017-12-26T16:07:15.763Z,95665.31
2017-12-26T16:09:44.757Z,95659.42
2017-12-26T16:12:10.596Z,95661.98
2017-12-26T16:14:40.106Z,95653.80
2017-12-26T16:17:05.936Z,95657.59
2017-12-26T16:19:34.610Z,95660.12
2017-12-26T16:22:00.431Z,95658.89
2017-12-26T16:24:30.206Z,95657.48
2017-12-26T16:26:56.408Z,95649.84
2017-12-26T16:29:22.323Z,95651.22
2017-12-26T16:31:48.173Z,95650.34
2017-12-26T16:34:14.022Z,95647.02
2017-12-26T16:36:40.672Z,95653.06
2017-12-26T16:39:06.548Z,95647.00
2017-12-26T16:41:36.546Z,95650.52
2017-12-26T16:44:02.429Z,95641.03
2017-12-26T16:46:31.318Z,95638.66
2017-12-26T16:48:57.146Z,95640.88
2017-12-26T16:51:24.657Z,95633.92
2017-12-26T16:53:50.529Z,95629.25
2017-12-26T16:56:19.884Z,95629.27
2017-12-26T16:58:45.720Z,95622.30
2017-12-26T17:01:26.361Z,95618.81
2017-12-26T17:03:52.205Z,95613.04
2017-12-26T17:06:18.029Z,95615.85
2017-12-26T17:08:43.866Z,95615.38
2017-12-26T17:11:09.729Z,95617.90
2017-12-26T17:13:35.609Z,95614.20
2017-12-26T17:16:01.385Z,95611.98
2017-12-26T17:18:27.228Z,95608.41
2017-12-26T17:20:53.056Z,95606.19
2017-12-26T17:23:18.886Z,95596.44
2017-12-26T17:25:44.677Z,95594.87
2017-12-26T17:28:10.603Z,95586.95
2017-12-26T17:30:36.418Z,95590.11
2017-12-26T17:33:05.401Z,95586.41
2017-12-26T17:35:31.237Z,95579.14
2017-12-26T17:37:59.244Z,95577.28
2017-12-26T17:40:25.036Z,95572.10
2017-12-26T17:42:50.891Z,95570.00
2017-12-26T17:45:16.720Z,95566.91
2017-12-26T17:47:42.530Z,95562.23
2017-12-26T17:50:12.343Z,95567.52
2017-12-26T17:52:38.150Z,95568.75
2017-12-26T17:55:06.993Z,95557.37
2017-12-26T17:57:32.836Z,95554.95
2017-12-26T18:00:00.551Z,95546.21
2017-12-26T18:02:26.363Z,95535.31
2017-12-26T18:07:23.053Z,95537.55
2017-12-26T18:09:50.699Z,95529.83
2017-12-26T18:12:16.546Z,95528.63
2017-12-26T18:14:45.501Z,95533.00
2017-12-26T18:17:11.330Z,95521.59
2017-12-26T18:19:37.143Z,95527.73
2017-12-26T18:22:02.977Z,95518.64
2017-12-26T18:24:28.772Z,95512.56
2017-12-26T18:26:56.788Z,95511.00
2017-12-26T18:29:22.719Z,95502.10
2017-12-26T18:31:51.853Z,95502.74
2017-12-26T18:34:17.714Z,95499.70
2017-12-26T18:36:46.695Z,95502.27
2017-12-26T18:39:12.539Z,95500.84
2017-12-26T18:41:42.104Z,95492.91
2017-12-26T18:44:07.956Z,95494.39
2017-12-26T18:46:35.601Z,95496.00
2017-12-26T18:49:01.451Z,95489.83
2017-12-26T18:51:30.840Z,95472.50
2017-12-26T18:53:56.710Z,95469.92
2017-12-26T18:56:22.524Z,95466.77
2017-12-26T18:58:48.405Z,95469.55
2017-12-26T19:01:14.236Z,95461.61
2017-12-26T19:03:42.005Z,95460.83
2017-12-26T19:06:07.853Z,95457.66
2017-12-26T19:08:38.866Z,95446.50
2017-12-26T19:11:04.696Z,95437.61
2017-12-26T19:13:31.876Z,95431.66
2017-12-26T19:15:57.702Z,95423.84
2017-12-26T19:18:26.131Z,95418.97
2017-12-26T19:20:52.031Z,95419.47
2017-12-26T19:23:22.026Z,95419.19
2017-12-26T19:25:47.832Z,95414.82
2017-12-26T19:28:15.689Z,95405.87
2017-12-26T19:30:41.520Z,95407.78
2017-12-26T19:33:07.324Z,95402.84
2017-12-26T19:35:33.156Z,95406.49
2017-12-26T19:37:58.984Z,95401.98
2017-12-26T19:40:27.951Z,95394.83
2017-12-26T19:42:53.774Z,95384.07
2017-12-26T19:45:23.485Z,95382.22
2017-12-26T19:47:49.283Z,95376.50
2017-12-26T19:50:18.533Z,95376.14
2017-12-26T19:52:44.373Z,95366.41
2017-12-26T19:55:11.932Z,95359.46
2017-12-26T19:57:37.756Z,95346.06
2017-12-26T20:00:06.960Z,95340.47
2017-12-26T20:02:32.787Z,95335.81
2017-12-26T20:05:02.096Z,95329.93
2017-12-26T20:07:27.896Z,95316.67
2017-12-26T20:09:53.734Z,95302.22
2017-12-26T20:12:19.596Z,95297.87
2017-12-26T20:14:45.457Z,95289.84
2017-12-26T20:17:14.398Z,95289.20
2017-12-26T20:19:40.198Z,95287.95
2017-12-26T20:22:07.330Z,95272.14
2017-12-26T20:24:33.190Z,95275.57
2017-12-26T20:27:02.334Z,95264.84
2017-12-26T20:29:28.204Z,95264.54
2017-12-26T20:31:57.250Z,95255.25
2017-12-26T20:34:23.088Z,95253.62
2017-12-26T20:36:52.723Z,95251.11
2017-12-26T20:39:18.508Z,95247.41
2017-12-26T20:41:47.245Z,95247.97
2017-12-26T20:44:13.052Z,95242.52
2017-12-26T20:46:38.919Z,95229.72
2017-12-26T20:49:04.676Z,95224.73
2017-12-26T20:51:30.557Z,95223.50
2017-12-26T20:53:59.752Z,95221.90
2017-12-26T20:56:25.596Z,95217.88
2017-12-26T20:58:53.037Z,95211.58
2017-12-26T21:01:18.850Z,95202.77
2017-12-26T21:03:47.567Z,95193.83
2017-12-26T21:06:13.440Z,95194.54
2017-12-26T21:08:42.794Z,95196.11
2017-12-26T21:11:08.588Z,95184.80
2017-12-26T21:13:38.265Z,95182.73
2017-12-26T21:16:04.063Z,95183.37
2017-12-26T21:18:31.758Z,95176.66
2017-12-26T21:20:57.612Z,95173.45
2017-12-26T21:23:23.433Z,95166.69
2017-12-26T21:25:49.336Z,95155.06
2017-12-26T21:28:15.189Z,95152.13
2017-12-26T21:30:45.072Z,95149.32
2017-12-26T21:33:10.911Z,95129.89
2017-12-26T21:35:38.273Z,95130.47
2017-12-26T21:38:04.092Z,95124.38
2017-12-26T21:40:33.463Z,95123.23
2017-12-26T21:42:59.290Z,95116.52
2017-12-26T21:45:28.853Z,95112.86
2017-12-26T21:47:54.692Z,95120.84
2017-12-26T21:50:22.435Z,95115.48
2017-12-26T21:52:48.283Z,95116.20
2017-12-26T21:55:17.487Z,95111.50
2017-12-26T21:57:43.294Z,95106.28
2017-12-26T22:00:09.121Z,95102.78
2017-12-26T22:02:34.972Z,95104.17
2017-12-26T22:05:00.776Z,95105.22
2017-12-26T22:07:28.620Z,95104.41
2017-12-26T22:09:54.464Z,95109.66
2017-12-26T22:12:27.104Z,95109.45
2017-12-26T22:14:52.961Z,95105.14
2017-12-26T22:17:18.840Z,95095.31
2017-12-26T22:19:44.704Z,95090.87
2017-12-26T22:22:13.834Z,95085.04
2017-12-26T22:24:39.685Z,95075.45
2017-12-26T22:27:09.234Z,95075.73
2017-12-26T22:29:35.097Z,95076.04
2017-12-26T22:32:02.911Z,95068.69
2017-12-26T22:34:28.733Z,95069.45
2017-12-26T22:36:54.563Z,95059.05
2017-12-26T22:39:20.434Z,95052.17
2017-12-26T22:41:46.264Z,95043.89
2017-12-26T22:44:15.094Z,95041.94
2017-12-26T22:46:40.911Z,95033.19
2017-12-26T22:49:08.498Z,95032.32
2017-12-26T22:51:34.318Z,95026.89
2017-12-26T22:56:30.922Z,95031.95
2017-12-26T22:58:58.453Z,95016.23
2017-12-26T23:01:24.309Z,95011.93
2017-12-26T23:03:53.694Z,95007.20
2017-12-26T23:06:19.530Z,95001.94
2017-12-26T23:08:48.602Z,94997.72
2017-12-26T23:11:14.418Z,94986.37
2017-12-26T23:13:40.273Z,94982.43
2017-12-26T23:16:12.254Z,94977.58
2017-12-26T23:18:38.111Z,94980.58
2017-12-26T23:21:04.029Z,94972.59
2017-12-26T23:23:35.976Z,94962.30
2017-12-26T23:26:07.874Z,94951.00
2017-12-26T23:28:39.919Z,94947.78
2017-12-26T23:34:18.499Z,94925.34
2017-12-26T23:36:50.421Z,94907.84
2017-12-26T23:39:22.825Z,94899.63
2017-12-26T23:41:55.479Z,94895.84
2017-12-26T23:47:26.199Z,94880.53
2017-12-26T23:49:58.042Z,94871.56
2017-12-26T23:52:29.949Z,94866.39
2017-12-26T23:55:01.745Z,94856.13
2017-12-26T23:57:33.760Z,94843.14
